Home > Products > Valid Products > TAF

000
FTUS45 KCYS 311100 CCA
TAFLAR
TAF COR
KLAR 311151Z 3112/0112 14004KT P6SM VCFG FEW001
      TEMPO 3112/3113 1/2SM FG VV001
     FM311400 11008KT P6SM SKC
     FM010200 15008KT P6SM SKC=



000
FTUS45 KCYS 311100 CCA
TAFLAR
TAF COR
KLAR 311151Z 3112/0112 14004KT P6SM VCFG FEW001
      TEMPO 3112/3113 1/2SM FG VV001
     FM311400 11008KT P6SM SKC
     FM010200 15008KT P6SM SKC=



000
FTUS45 KCYS 311100
TAFCYS
TAF
KCYS 311126Z 3112/0112 29007KT P6SM SKC
     FM311700 06007KT P6SM SKC
     FM010100 20005KT P6SM SKC=



000
FTUS45 KCYS 311100
TAFRWL
TAF
KRWL 311126Z 3112/0112 08007KT P6SM SKC=



000
FTUS45 KCYS 311100
TAFCYS
TAF
KCYS 311126Z 3112/0112 29007KT P6SM SKC
     FM311700 06007KT P6SM SKC
     FM010100 20005KT P6SM SKC=



000
FTUS45 KCYS 311100
TAFLAR
TAF
KLAR 311126Z 3112/0112 14004KT P6SM VCFG FEW001
     FM311400 11008KT P6SM SKC
     FM010200 15008KT P6SM SKC=



000
FTUS45 KCYS 311100
TAFLAR
TAF
KLAR 311126Z 3112/0112 14004KT P6SM VCFG FEW001
     FM311400 11008KT P6SM SKC
     FM010200 15008KT P6SM SKC=



000
FTUS45 KCYS 311100
TAFRWL
TAF
KRWL 311126Z 3112/0112 08007KT P6SM SKC=



000
FTUS45 KCYS 310500 CCA
TAFLAR
TAF COR
KLAR 310527Z 3106/0106 VRB04KT P6SM SCT110
     FM311300 11008KT 5SM BR SCT015 BKN060
     FM311500 13008KT P6SM SCT040=



000
FTUS45 KCYS 310500 CCA
TAFLAR
TAF COR
KLAR 310527Z 3106/0106 VRB04KT P6SM SCT110
     FM311300 11008KT 5SM BR SCT015 BKN060
     FM311500 13008KT P6SM SCT040=



000
FTUS45 KCYS 310500 CCA
TAFRWL
TAF COR
KRWL 310524Z 3106/0106 08007KT P6SM SCT110=



000
FTUS45 KCYS 310500 CCA
TAFRWL
TAF COR
KRWL 310524Z 3106/0106 08007KT P6SM SCT110=



000
FTUS45 KCYS 310500 CCA
TAFCYS
TAF COR
KCYS 310522Z 3106/0106 26007KT P6SM OVC150
     FM311200 30007KT P6SM SCT150
     FM311800 03008KT P6SM SCT040=



000
FTUS45 KCYS 310500 CCA
TAFCYS
TAF COR
KCYS 310522Z 3106/0106 26007KT P6SM OVC150
     FM311200 30007KT P6SM SCT150
     FM311800 03008KT P6SM SCT040=



000
FTUS45 KCYS 310500
TAFRWL
TAF
KRWL 310520Z 3106/0106 07008KT P6SM SCT040 BKN080
     FM310800 06008KT P6SM SCT060
     FM311800 10008KT P6SM SCT060=



000
FTUS45 KCYS 310500
TAFCYS
TAF
KCYS 310520Z 3106/0106 23007KT P6SM SCT010 SCT050
     FM311200 30007KT 5SM BR SCT010 BKN040
     FM311800 03008KT P6SM SCT040=



000
FTUS45 KCYS 310500
TAFCYS
TAF
KCYS 310520Z 3106/0106 23007KT P6SM SCT010 SCT050
     FM311200 30007KT 5SM BR SCT010 BKN040
     FM311800 03008KT P6SM SCT040=



000
FTUS45 KCYS 310500
TAFLAR
TAF
KLAR 310520Z 3106/0106 23007KT P6SM SCT010 BKN100
     FM311300 11008KT 5SM BR SCT015 BKN060
     FM311500 13008KT P6SM SCT020 BKN040=



000
FTUS45 KCYS 310500
TAFLAR
TAF
KLAR 310520Z 3106/0106 23007KT P6SM SCT010 BKN100
     FM311300 11008KT 5SM BR SCT015 BKN060
     FM311500 13008KT P6SM SCT020 BKN040=



000
FTUS45 KCYS 310500
TAFRWL
TAF
KRWL 310520Z 3106/0106 07008KT P6SM SCT040 BKN080
     FM310800 06008KT P6SM SCT060
     FM311800 10008KT P6SM SCT060=



000
FTUS45 KCYS 302300
TAFLAR
TAF
KLAR 302320Z 3100/3124 16008KT P6SM -SHRA SCT014 BKN035
     FM310400 13007KT 5SM BR SCT005 OVC012
     FM310700 17007KT 1SM BR BKN005 OVC010
     FM311200 32008KT 5SM BR SCT015 BKN060
     FM311500 13008KT P6SM SCT020 BKN040=



000
FTUS45 KCYS 302300
TAFCYS
TAF
KCYS 302320Z 3100/3124 21007KT P6SM VCSH SCT010 BKN050
     FM310400 VRB05KT 5SM BR SCT005 BKN010 OVC040
     FM310700 02005KT 1SM BR BKN005 OVC010
     FM311200 30007KT 5SM BR SCT010 BKN040
     FM311500 34008KT P6SM SCT040=



000
FTUS45 KCYS 302300
TAFRWL
TAF
KRWL 302320Z 3100/3124 08015KT P6SM VCSH SCT015 BKN035 OVC080
     FM310400 07012KT P6SM BKN040 OVC080
     FM310800 06008KT P6SM SCT060=



000
FTUS45 KCYS 302300
TAFLAR
TAF
KLAR 302320Z 3100/3124 16008KT P6SM -SHRA SCT014 BKN035
     FM310400 13007KT 5SM BR SCT005 OVC012
     FM310700 17007KT 1SM BR BKN005 OVC010
     FM311200 32008KT 5SM BR SCT015 BKN060
     FM311500 13008KT P6SM SCT020 BKN040=



000
FTUS45 KCYS 302300
TAFCYS
TAF
KCYS 302320Z 3100/3124 21007KT P6SM VCSH SCT010 BKN050
     FM310400 VRB05KT 5SM BR SCT005 BKN010 OVC040
     FM310700 02005KT 1SM BR BKN005 OVC010
     FM311200 30007KT 5SM BR SCT010 BKN040
     FM311500 34008KT P6SM SCT040=



000
FTUS45 KCYS 302300
TAFRWL
TAF
KRWL 302320Z 3100/3124 08015KT P6SM VCSH SCT015 BKN035 OVC080
     FM310400 07012KT P6SM BKN040 OVC080
     FM310800 06008KT P6SM SCT060=



000
FTUS45 KCYS 301700
TAFRWL
TAF
KRWL 301740Z 3018/3118 08015KT P6SM -SHRA SCT015 BKN025 OVC080
     FM302000 07012KT P6SM VCSH BKN040 OVC080
     FM310000 06008KT P6SM SCT060=



000
FTUS45 KCYS 301700
TAFCYS
TAF
KCYS 301740Z 3018/3118 05008KT 3SM -RA SCT007 BKN015 OVC035
     FM302000 15007KT P6SM -SHRA SCT015 BKN050
     FM302300 21007KT P6SM SCT060
     FM310600 31005KT P6SM SCT035=



000
FTUS45 KCYS 301700
TAFLAR
TAF
KLAR 301740Z 3018/3118 10008KT P6SM -RA BKN014 BKN035
     FM302000 34010KT P6SM -SHRA SCT015 BKN025
     FM310100 17007KT P6SM SCT060=



000
FTUS45 KCYS 301700
TAFRWL
TAF
KRWL 301740Z 3018/3118 08015KT P6SM -SHRA SCT015 BKN025 OVC080
     FM302000 07012KT P6SM VCSH BKN040 OVC080
     FM310000 06008KT P6SM SCT060=



000
FTUS45 KCYS 301700
TAFLAR
TAF
KLAR 301740Z 3018/3118 10008KT P6SM -RA BKN014 BKN035
     FM302000 34010KT P6SM -SHRA SCT015 BKN025
     FM310100 17007KT P6SM SCT060=



000
FTUS45 KCYS 301700
TAFCYS
TAF
KCYS 301740Z 3018/3118 05008KT 3SM -RA SCT007 BKN015 OVC035
     FM302000 15007KT P6SM -SHRA SCT015 BKN050
     FM302300 21007KT P6SM SCT060
     FM310600 31005KT P6SM SCT035=



000
FTUS45 KCYS 301700 AAA
TAFCYS
TAF AMD
KCYS 301716Z 3017/3112 05008KT 2SM -RA BKN007 OVC035
     FM301900 15007KT P6SM -SHRA SCT015 BKN050
     FM310100 21007KT P6SM SCT060=



000
FTUS45 KCYS 301700 AAA
TAFCYS
TAF AMD
KCYS 301716Z 3017/3112 05008KT 2SM -RA BKN007 OVC035
     FM301900 15007KT P6SM -SHRA SCT015 BKN050
     FM310100 21007KT P6SM SCT060=



000
FTUS45 KCYS 301600 AAA
TAFRWL
TAF AMD
KRWL 301602Z 3016/3112 06013KT P6SM VCSH SCT040 OVC080
     FM301800 09012KT P6SM -SHRA BKN035 OVC060
     FM302000 10011KT P6SM VCSH SCT025 BKN040
     FM310100 06008KT P6SM SCT060=



000
FTUS45 KCYS 301600 AAA
TAFRWL
TAF AMD
KRWL 301602Z 3016/3112 06013KT P6SM VCSH SCT040 OVC080
     FM301800 09012KT P6SM -SHRA BKN035 OVC060
     FM302000 10011KT P6SM VCSH SCT025 BKN040
     FM310100 06008KT P6SM SCT060=



000
FTUS45 KCYS 301500 AAA
TAFCYS
TAF AMD
KCYS 301557Z 3016/3112 05008KT P6SM -RA SCT009 BKN050
     FM301900 15007KT P6SM -SHRA SCT015 BKN050
     FM310100 21007KT P6SM SCT060=



000
FTUS45 KCYS 301100
TAFCYS
TAF
KCYS 301123Z 3012/3112 05008KT P6SM -RA OVC004
     FM301500 14006KT P6SM -RA OVC009
     FM301900 15007KT P6SM -SHRA SCT015 BKN025
     FM310100 21007KT P6SM SCT060=



000
FTUS45 KCYS 301100
TAFRWL
TAF
KRWL 301123Z 3012/3112 06011KT P6SM -SHRA SCT008 BKN018
     FM301500 07010KT P6SM -SHRA SCT015 BKN025
     FM301900 10011KT P6SM VCSH SCT025 BKN040
     FM310100 06008KT P6SM SCT060=



000
FTUS45 KCYS 301100
TAFLAR
TAF
KLAR 301123Z 3012/3112 05008KT P6SM -RA SCT012 BKN020
     FM301900 34010KT P6SM -SHRA SCT015 BKN025
     FM310100 17007KT P6SM SCT060=



000
FTUS45 KCYS 301100
TAFLAR
TAF
KLAR 301123Z 3012/3112 05008KT P6SM -RA SCT012 BKN020
     FM301900 34010KT P6SM -SHRA SCT015 BKN025
     FM310100 17007KT P6SM SCT060=



000
FTUS45 KCYS 301100
TAFCYS
TAF
KCYS 301123Z 3012/3112 05008KT P6SM -RA OVC004
     FM301500 14006KT P6SM -RA OVC009
     FM301900 15007KT P6SM -SHRA SCT015 BKN025
     FM310100 21007KT P6SM SCT060=



000
FTUS45 KCYS 301100
TAFRWL
TAF
KRWL 301123Z 3012/3112 06011KT P6SM -SHRA SCT008 BKN018
     FM301500 07010KT P6SM -SHRA SCT015 BKN025
     FM301900 10011KT P6SM VCSH SCT025 BKN040
     FM310100 06008KT P6SM SCT060=



000
FTUS45 KCYS 300500
TAFCYS
TAF
KCYS 300535Z 3006/3106 05010KT P6SM -RA BKN005
     FM301500 08009KT P6SM -RA OVC009
     FM301900 10008KT P6SM -SHRA SCT015 BKN025
     FM310100 24006KT P6SM SCT060=



000
FTUS45 KCYS 300500
TAFRWL
TAF
KRWL 300535Z 3006/3106 06010KT P6SM -SHRA SCT009 OVC019
     FM300800 06007KT P6SM -SHRA OVC010
     FM301500 07010KT P6SM -SHRA SCT010 OVC018
     FM301900 10011KT P6SM VCSH SCT025 BKN040
     FM310100 06008KT P6SM SCT060=



000
FTUS45 KCYS 300500
TAFLAR
TAF
KLAR 300535Z 3006/3106 07012KT P6SM -RA SCT005 OVC015
     FM301400 12010KT P6SM -RA OVC009
     FM301900 34010KT P6SM -SHRA SCT015 BKN025
     FM310100 17007KT P6SM SCT060=



000
FTUS45 KCYS 300300 AAB
TAFRWL
TAF AMD
KRWL 300326Z 3003/3024 05011KT P6SM -SHRA SCT015 OVC060
      TEMPO 3003/3006 BKN015
     FM301200 05010KT 4SM SHRA BKN025=



000
FTUS45 KCYS 300300 AAB
TAFRWL
TAF AMD
KRWL 300326Z 3003/3024 05011KT P6SM -SHRA SCT015 OVC060
      TEMPO 3003/3006 BKN015
     FM301200 05010KT 4SM SHRA BKN025=



000
FTUS45 KCYS 300200 CCA
TAFRWL
TAF COR
KRWL 300200Z 3002/3024 05013KT P6SM -SHRA BKN008 OVC060
      TEMPO 3002/3006 SCT008 BKN015
     FM301200 05010KT 4SM SHRA BKN025=



000
FTUS45 KCYS 300200 CCA
TAFRWL
TAF COR
KRWL 300200Z 3002/3024 05013KT P6SM -SHRA BKN008 OVC060
      TEMPO 3002/3006 SCT008 BKN015
     FM301200 05010KT 4SM SHRA BKN025=



000
FTUS45 KCYS 300100 AAB
TAFLAR
TAF AMD
KLAR 300158Z 3002/3024 36006KT P6SM -SHRA SCT025 OVC050
      TEMPO 3002/3006 2SM RA SCT015 OVC025
     FM300600 11010KT P6SM VCSH OVC025=



000
FTUS45 KCYS 300100 AAB
TAFLAR
TAF AMD
KLAR 300158Z 3002/3024 36006KT P6SM -SHRA SCT025 OVC050
      TEMPO 3002/3006 2SM RA SCT015 OVC025
     FM300600 11010KT P6SM VCSH OVC025=



000
FTUS45 KCYS 300100 AAA
TAFRWL
TAF AMD
KRWL 300114Z 3001/3024 05013KT P6SM -SHRA SCT008 BKN025 OVC040
      TEMPO 3001/3005 BKN006
     FM301200 05010KT 4SM SHRA BKN025=



000
FTUS45 KCYS 300100 AAA
TAFRWL
TAF AMD
KRWL 300114Z 3001/3024 05013KT P6SM -SHRA SCT008 BKN025 OVC040
      TEMPO 3001/3005 BKN006
     FM301200 05010KT 4SM SHRA BKN025=



000
FTUS45 KCYS 292300 AAA
TAFCYS
TAF AMD
KCYS 292350Z 3000/3024 06010KT 5SM SHRA VCTS SCT025CB BKN040 OVC080
      TEMPO 3000/3004 2SM RA BKN025 OVC050
     FM300600 08020KT 1SM RA VCTS BKN010CB OVC025
     FM301200 08009KT 4SM -RA OVC009=



000
FTUS45 KCYS 292300 AAA
TAFCYS
TAF AMD
KCYS 292350Z 3000/3024 06010KT 5SM SHRA VCTS SCT025CB BKN040 OVC080
      TEMPO 3000/3004 2SM RA BKN025 OVC050
     FM300600 08020KT 1SM RA VCTS BKN010CB OVC025
     FM301200 08009KT 4SM -RA OVC009=



000
FTUS45 KCYS 292300 AAA
TAFLAR
TAF AMD
KLAR 292348Z 3000/3024 08010KT 5SM SHRA VCTS SCT020CB OVC035
      TEMPO 3000/3004 2SM RA SCT015 OVC025
     FM300600 11010KT P6SM VCSH OVC025=



000
FTUS45 KCYS 292300 AAA
TAFLAR
TAF AMD
KLAR 292348Z 3000/3024 08010KT 5SM SHRA VCTS SCT020CB OVC035
      TEMPO 3000/3004 2SM RA SCT015 OVC025
     FM300600 11010KT P6SM VCSH OVC025=



000
FTUS45 KCYS 292300
TAFLAR
TAF
KLAR 292320Z 3000/3024 16010KT 5SM SHRA VCTS SCT020CB OVC040
     FM300200 12015KT 2SM RA SCT015 OVC025
     FM300600 11010KT P6SM VCSH OVC025=



000
FTUS45 KCYS 292300
TAFRWL
TAF
KRWL 292320Z 3000/3024 06016KT 6SM -SHRA BKN025 OVC040
     FM300800 05010KT 4SM SHRA SCT025 BKN030=



000
FTUS45 KCYS 292300
TAFCYS
TAF
KCYS 292320Z 3000/3024 09015KT 2SM +RA VCTS SCT025CB OVC040
     FM300600 08020KT 1SM RA VCTS BKN010CB
     FM301200 08009KT 4SM -RA OVC009=



000
FTUS45 KCYS 292300
TAFCYS
TAF
KCYS 292320Z 3000/3024 09015KT 2SM +RA VCTS SCT025CB OVC040
     FM300600 08020KT 1SM RA VCTS BKN010CB
     FM301200 08009KT 4SM -RA OVC009=



000
FTUS45 KCYS 292300
TAFRWL
TAF
KRWL 292320Z 3000/3024 06016KT 6SM -SHRA BKN025 OVC040
     FM300800 05010KT 4SM SHRA SCT025 BKN030=



000
FTUS45 KCYS 292300
TAFLAR
TAF
KLAR 292320Z 3000/3024 16010KT 5SM SHRA VCTS SCT020CB OVC040
     FM300200 12015KT 2SM RA SCT015 OVC025
     FM300600 11010KT P6SM VCSH OVC025=



000
FTUS45 KCYS 292100 AAC
TAFRWL
TAF AMD
KRWL 292122Z 2921/3018 28010KT 6SM -TSRA SCT030CB OVC050
      TEMPO 2921/2924 2SM +TSRA BKN040CB
     FM300000 06016KT 6SM -SHRA BKN015 OVC025=



000
FTUS45 KCYS 292000 AAB
TAFCYS
TAF AMD
KCYS 292048Z 2921/3018 12012KT 4SM TSRA SCT025CB OVC040
     FM300000 09015KT 2SM +TSRA SCT015CB OVC025
     FM300600 08020KT 1SM RA VCTS BKN010CB
     FM301200 08009KT 4SM -RA OVC009=



000
FTUS45 KCYS 292000 AAB
TAFCYS
TAF AMD
KCYS 292048Z 2921/3018 12012KT 4SM TSRA SCT025CB OVC040
     FM300000 09015KT 2SM +TSRA SCT015CB OVC025
     FM300600 08020KT 1SM RA VCTS BKN010CB
     FM301200 08009KT 4SM -RA OVC009=



000
FTUS45 KCYS 292000 AAA
TAFCYS
TAF AMD
KCYS 292023Z 2920/3018 12012KT 4SM TSRA SCT025CB OVC040
     FM300300 09015KT 2SM +TSRA SCT015CB OVC025
     FM300900 08020KT 1SM RA VCTS BKN010CB=



000
FTUS45 KCYS 292000 AAA
TAFCYS
TAF AMD
KCYS 292023Z 2920/3018 12012KT 4SM TSRA SCT025CB OVC040
     FM300300 09015KT 2SM +TSRA SCT015CB OVC025
     FM300900 08020KT 1SM RA VCTS BKN010CB=



000
FTUS45 KCYS 291900 AAB
TAFRWL
TAF AMD
KRWL 291940Z 2920/3018 VRB12G24KT 6SM -TSRA SCT030CB OVC050
      TEMPO 2920/2923 1SM +TSRA BKN040CB
     FM300300 06016KT 4SM SHRA BKN015 OVC025=



000
FTUS45 KCYS 291900 AAB
TAFRWL
TAF AMD
KRWL 291940Z 2920/3018 VRB12G24KT 6SM -TSRA SCT030CB OVC050
      TEMPO 2920/2923 1SM +TSRA BKN040CB
     FM300300 06016KT 4SM SHRA BKN015 OVC025=



000
FTUS45 KCYS 291800 AAA
TAFRWL
TAF AMD
KRWL 291842Z 2919/3018 VRB12G24KT 6SM -TSRA SCT030CB OVC050
     FM300300 06016KT 4SM SHRA BKN015 OVC025=



000
FTUS45 KCYS 291800 AAA
TAFLAR
TAF AMD
KLAR 291822Z 2918/3018 12010KT P6SM VCTS SCT020CB OVC040
     FM300200 12017G23KT 2SM RA SCT015 OVC025=



000
FTUS45 KCYS 291800 AAA
TAFLAR
TAF AMD
KLAR 291822Z 2918/3018 12010KT P6SM VCTS SCT020CB OVC040
     FM300200 12017G23KT 2SM RA SCT015 OVC025=



000
FTUS45 KCYS 291700
TAFRWL
TAF
KRWL 291724Z 2918/3018 VRB05KT P6SM VCSH SCT080
     FM291900 04012KT 6SM -TSRA SCT030CB OVC050
     FM300300 06016KT 4SM SHRA BKN015 OVC025=



000
FTUS45 KCYS 291700
TAFLAR
TAF
KLAR 291724Z 2918/3018 VRB25G35KT 1SM +TSRA SCT025CB OVC040
     FM291900 12010KT P6SM VCTS SCT020CB OVC040
     FM300200 12017G23KT 2SM RA SCT015 OVC025=



000
FTUS45 KCYS 291700
TAFLAR
TAF
KLAR 291724Z 2918/3018 VRB25G35KT 1SM +TSRA SCT025CB OVC040
     FM291900 12010KT P6SM VCTS SCT020CB OVC040
     FM300200 12017G23KT 2SM RA SCT015 OVC025=



000
FTUS45 KCYS 291700
TAFCYS
TAF
KCYS 291724Z 2918/3018 10007KT P6SM SCT030 OVC050
     FM292000 12012KT 4SM TSRA SCT025CB OVC040
     FM300300 09015KT 2SM +TSRA SCT015CB OVC025
     FM300900 08020KT 1SM RA VCTS BKN010CB=



000
FTUS45 KCYS 291700
TAFCYS
TAF
KCYS 291724Z 2918/3018 10007KT P6SM SCT030 OVC050
     FM292000 12012KT 4SM TSRA SCT025CB OVC040
     FM300300 09015KT 2SM +TSRA SCT015CB OVC025
     FM300900 08020KT 1SM RA VCTS BKN010CB=



000
FTUS45 KCYS 291700
TAFRWL
TAF
KRWL 291724Z 2918/3018 VRB05KT P6SM VCSH SCT080
     FM291900 04012KT 6SM -TSRA SCT030CB OVC050
     FM300300 06016KT 4SM SHRA BKN015 OVC025=



000
FTUS45 KCYS 291100
TAFCYS
TAF
KCYS 291129Z 2912/3012 26005KT P6SM SCT150
     FM291500 10007KT P6SM SCT030 OVC050
     FM291900 10012KT 4SM TSRA SCT025CB OVC040
     FM300600 13008KT 2SM -SHRA VCTS SCT015CB OVC025=



000
FTUS45 KCYS 291100
TAFRWL
TAF
KRWL 291129Z 2912/3012 VRB04KT P6SM VCSH SCT080
     FM291500 15007KT P6SM -SHRA SCT030 BKN050
     FM291800 04012KT 4SM -TSRA SCT030CB OVC050
     FM300300 06014KT 2SM -SHRA VCTS BKN015CB OVC025=



000
FTUS45 KCYS 291100
TAFLAR
TAF
KLAR 291129Z 2912/3012 15006KT P6SM SCT150
     FM291500 08009KT P6SM SCT030 OVC050
     FM291900 08012KT 4SM TSRA SCT025CB OVC040
     FM300600 15008KT 2SM -SHRA VCTS SCT015CB OVC025=



000
FTUS45 KCYS 290500
TAFRWL
TAF
KRWL 290530Z 2906/3006 11009G20KT P6SM SCT080
     FM290800 02006KT P6SM SCT080
     FM291500 04010KT P6SM BKN050
     FM291800 04012KT 4SM -SHRA OVC045
     FM300200 03014KT 3SM TSRA BKN025CB OVC040=



000
FTUS45 KCYS 290500
TAFCYS
TAF
KCYS 290530Z 2906/3006 18004KT P6SM BKN090
     FM290800 18008KT P6SM BKN050
      TEMPO 2910/2914 3SM BR BKN025
     FM291500 36010G20KT P6SM OVC050
     FM291900 01012KT 4SM -SHRA OVC040
     FM300200 07012KT 3SM TSRA BKN025CB OVC040=



000
FTUS45 KCYS 290500
TAFLAR
TAF
KLAR 290530Z 2906/3006 15012KT P6SM BKN080
     FM291000 18008KT 3SM BR BKN035
     FM291500 08009KT P6SM BKN050
     FM291900 08012KT 4SM -SHRA OVC050
     FM300200 08015KT 3SM TSRA OVC025CB=



000
FTUS45 KCYS 290500
TAFLAR
TAF
KLAR 290530Z 2906/3006 15012KT P6SM BKN080
     FM291000 18008KT 3SM BR BKN035
     FM291500 08009KT P6SM BKN050
     FM291900 08012KT 4SM -SHRA OVC050
     FM300200 08015KT 3SM TSRA OVC025CB=



000
FTUS45 KCYS 290500
TAFCYS
TAF
KCYS 290530Z 2906/3006 18004KT P6SM BKN090
     FM290800 18008KT P6SM BKN050
      TEMPO 2910/2914 3SM BR BKN025
     FM291500 36010G20KT P6SM OVC050
     FM291900 01012KT 4SM -SHRA OVC040
     FM300200 07012KT 3SM TSRA BKN025CB OVC040=



000
FTUS45 KCYS 290500
TAFRWL
TAF
KRWL 290530Z 2906/3006 11009G20KT P6SM SCT080
     FM290800 02006KT P6SM SCT080
     FM291500 04010KT P6SM BKN050
     FM291800 04012KT 4SM -SHRA OVC045
     FM300200 03014KT 3SM TSRA BKN025CB OVC040=



000
FTUS45 KCYS 282300
TAFLAR
TAF
KLAR 282337Z 2900/2924 12010G20KT P6SM VCTS BKN060CB
     FM290300 16008KT P6SM BKN080
     FM291000 18008KT 3SM BR BKN035
     FM291500 08009KT P6SM BKN050
     FM291900 08012KT 4SM -SHRA OVC050
      TEMPO 2920/2924 3SM TSRA OVC025CB=



000
FTUS45 KCYS 282300
TAFLAR
TAF
KLAR 282337Z 2900/2924 12010G20KT P6SM VCTS BKN060CB
     FM290300 16008KT P6SM BKN080
     FM291000 18008KT 3SM BR BKN035
     FM291500 08009KT P6SM BKN050
     FM291900 08012KT 4SM -SHRA OVC050
      TEMPO 2920/2924 3SM TSRA OVC025CB=



000
FTUS45 KCYS 282300
TAFRWL
TAF
KRWL 282337Z 2900/2924 09013G20KT P6SM VCTS BKN080CB
     FM290300 05008KT P6SM SCT080
     FM290800 24006KT P6SM SCT080
     FM291500 04010KT P6SM BKN050
     FM291800 04012KT 4SM -SHRA OVC045
      TEMPO 2920/2924 3SM TSRA BKN040CB=



000
FTUS45 KCYS 282300
TAFRWL
TAF
KRWL 282337Z 2900/2924 09013G20KT P6SM VCTS BKN080CB
     FM290300 05008KT P6SM SCT080
     FM290800 24006KT P6SM SCT080
     FM291500 04010KT P6SM BKN050
     FM291800 04012KT 4SM -SHRA OVC045
      TEMPO 2920/2924 3SM TSRA BKN040CB=



000
FTUS45 KCYS 282300
TAFCYS
TAF
KCYS 282337Z 2900/2924 13013G24KT P6SM SCT060 BKN090
      TEMPO 2900/2902 VRB20G35KT 5SM TSRA BKN040CB
     FM290300 18009KT P6SM BKN090
     FM290800 25008KT P6SM BKN050
      TEMPO 2910/2914 4SM BR OVC025
     FM291500 36010G20KT P6SM OVC050
     FM291900 01012KT 4SM -SHRA OVC040
      TEMPO 2920/2924 3SM TSRA OVC025CB=



000
FTUS45 KCYS 282300
TAFCYS
TAF
KCYS 282337Z 2900/2924 13013G24KT P6SM SCT060 BKN090
      TEMPO 2900/2902 VRB20G35KT 5SM TSRA BKN040CB
     FM290300 18009KT P6SM BKN090
     FM290800 25008KT P6SM BKN050
      TEMPO 2910/2914 4SM BR OVC025
     FM291500 36010G20KT P6SM OVC050
     FM291900 01012KT 4SM -SHRA OVC040
      TEMPO 2920/2924 3SM TSRA OVC025CB=



000
FTUS45 KCYS 282300 AAA
TAFCYS
TAF AMD
KCYS 282312Z 2823/2918 16012G22KT P6SM VCTS SCT050CB BKN090
      TEMPO 2823/2901 VRB20G35KT 5SM TSRA BKN040CB
     FM290600 VRB05KT P6SM SCT080=



000
FTUS45 KCYS 282300 AAA
TAFCYS
TAF AMD
KCYS 282312Z 2823/2918 16012G22KT P6SM VCTS SCT050CB BKN090
      TEMPO 2823/2901 VRB20G35KT 5SM TSRA BKN040CB
     FM290600 VRB05KT P6SM SCT080=



000
FTUS45 KCYS 281700
TAFRWL
TAF
KRWL 281732Z 2818/2918 12007KT P6SM SCT150
     FM282100 12010KT P6SM VCTS BKN120CB
     FM290400 08008KT P6SM BKN100
     FM291300 05006KT P6SM VCSH SCT015 OVC035=



000
FTUS45 KCYS 281700
TAFCYS
TAF
KCYS 281732Z 2818/2918 14008KT P6SM SCT200
     FM282100 14008KT P6SM VCTS SCT040 BKN120CB
     FM290600 VRB05KT P6SM SCT080=



000
FTUS45 KCYS 281700
TAFLAR
TAF
KLAR 281732Z 2818/2918 16007KT P6SM SKC
     FM282000 13012KT P6SM VCTS SCT050CB BKN150
      TEMPO 2820/2822 6SM -TSRA BKN050CB
     FM290400 VRB05KT P6SM SCT050 BKN120
     FM291100 30007KT P6SM SCT015 BKN040
     FM291500 31007KT P6SM VCSH SCT015 OVC040=



000
FTUS45 KCYS 281700
TAFCYS
TAF
KCYS 281732Z 2818/2918 14008KT P6SM SCT200
     FM282100 14008KT P6SM VCTS SCT040 BKN120CB
     FM290600 VRB05KT P6SM SCT080=



000
FTUS45 KCYS 281700
TAFLAR
TAF
KLAR 281732Z 2818/2918 16007KT P6SM SKC
     FM282000 13012KT P6SM VCTS SCT050CB BKN150
      TEMPO 2820/2822 6SM -TSRA BKN050CB
     FM290400 VRB05KT P6SM SCT050 BKN120
     FM291100 30007KT P6SM SCT015 BKN040
     FM291500 31007KT P6SM VCSH SCT015 OVC040=



000
FTUS45 KCYS 281700
TAFRWL
TAF
KRWL 281732Z 2818/2918 12007KT P6SM SCT150
     FM282100 12010KT P6SM VCTS BKN120CB
     FM290400 08008KT P6SM BKN100
     FM291300 05006KT P6SM VCSH SCT015 OVC035=



    US Dept of Commerce
    National Oceanic and Atmospheric Administration
    National Weather Service
    1325 East West Highway
    Silver Spring, MD 20910
    Page Author: NWS Internet Services Team
Disclaimer
Information Quality
Credits
Glossary
Privacy Policy
Freedom of Information Act (FOIA)
About Us
Career Opportunities